Chiefland, FL (32626)

11:38 AM EDT on April 25, 2017 (GMT -0400)
Chiefland | | Change Station

Elev 34 ft 29.48 °N, 82.86 °W | Updated 27 seconds ago

Partly Cloudy
Partly Cloudy
74.2 °F
Feels Like 77 °F
N
3.0
Wind Variable Wind from North
Gusts 10.0 mph

Today
High -- | Low -- °F
--% Chance of Precip.
Yesterday
High -- | Low -- °F
Precip. -- in
Pressure 29.85 in
Visibility 10.0 miles
Clouds Scattered Clouds 4100 ft
Heat Index 77 °F
Dew Point 57 °F
Humidity 55%
Rainfall 0.00 in
Snow Depth Not available.
6:54 AM 8:04 PM
Waning Crescent, 1% visible
METAR KCTY 251535Z AUTO 29009KT 10SM SCT041 24/12 A2985 RMK AO2
Pressure 29.85 in
Visibility 10.0 miles
Clouds Scattered Clouds 4100 ft
Heat Index 77 °F
Dew Point 57 °F
Humidity 55%
Rainfall 0.00 in
Snow Depth Not available.
6:54 AM 8:04 PM
Waning Crescent, 1% visible
METAR KCTY 251535Z AUTO 29009KT 10SM SCT041 24/12 A2985 RMK AO2

Get Severe Weather Alerts

Thanks for signing up!

Be on the lookout for a verification email in your inbox.

You'll start receiving the daily forecast at 8 AM.

×

10-Day Weather Forecast

Almanac

Astronomy

Apr. 25, 2017 Rise Set
Actual Time
Civil Twilight
Nautical Twilight
Astronomical Twilight
Moon
Length of Visible Light
Length of Day
Tomorrow will be .
, % of the Moon is Illuminated

Today's Extremes

State Highs State Lows

Community

WunderPhotos

WunderBlog® & News

Nearby

Air Quality

  Air Quality AQ Index Pollutant
Not available.

Snow Depth

Station Depth Elevation

Earthquake Activity

City Distance Mag. Time & Date
Minimum magnitude displayed is 2.5.

Coastal Water Temperatures

Place Temperature

Stations

Nearby Weather Stations

Station Location Temp. Windchill Dew Point Humidity Wind Precip. Elev Updated Type
                   

Watches & Warnings

There are currently no watches in effect.